createdAt,value
2023-05-23T00:01:43.317Z,19.26
2023-05-23T00:04:17.192Z,19.27
2023-05-23T00:06:47.121Z,19.14
2023-05-23T00:09:17.221Z,19.08
2023-05-23T00:11:45.927Z,19.04
2023-05-23T00:14:15.038Z,19.37
2023-05-23T00:16:44.994Z,19.58
2023-05-23T00:19:15.099Z,19.64
2023-05-23T00:21:44.189Z,19.11
2023-05-23T00:24:12.417Z,19.16
2023-05-23T00:26:42.017Z,19.52
2023-05-23T00:29:15.854Z,19.85
2023-05-23T00:31:46.513Z,19.58
2023-05-23T00:34:15.759Z,19.52
2023-05-23T00:36:43.905Z,19.60
2023-05-23T00:39:19.229Z,19.42
2023-05-23T00:41:52.715Z,19.32
2023-05-23T00:44:22.248Z,19.03
2023-05-23T00:46:53.456Z,19.14
2023-05-23T00:49:21.890Z,19.18
2023-05-23T00:51:50.589Z,19.19
2023-05-23T00:54:20.144Z,19.07
2023-05-23T00:56:48.795Z,19.00
2023-05-23T00:59:18.563Z,18.89
2023-05-23T01:01:47.660Z,18.92
2023-05-23T01:04:16.989Z,18.90
2023-05-23T01:06:47.191Z,18.99
2023-05-23T01:09:16.339Z,18.87
2023-05-23T01:11:47.337Z,18.76
2023-05-23T01:14:22.031Z,19.07
2023-05-23T01:16:53.830Z,19.05
2023-05-23T01:19:47.839Z,18.82
2023-05-23T01:22:23.980Z,18.70
2023-05-23T01:24:56.626Z,18.76
2023-05-23T01:27:34.441Z,18.58
2023-05-23T01:30:05.625Z,18.49
2023-05-23T01:32:34.002Z,18.48
2023-05-23T01:35:02.267Z,18.46
2023-05-23T01:37:31.370Z,18.40
2023-05-23T01:40:00.101Z,18.45
2023-05-23T01:42:28.676Z,18.41
2023-05-23T01:44:59.364Z,18.35
2023-05-23T01:47:29.165Z,18.34
2023-05-23T01:50:00.370Z,18.44
2023-05-23T01:52:28.636Z,18.33
2023-05-23T01:54:57.153Z,18.53
2023-05-23T01:57:25.561Z,18.47
2023-05-23T01:59:54.298Z,18.40
2023-05-23T02:02:23.563Z,18.25
2023-05-23T02:04:54.114Z,18.18
2023-05-23T02:07:23.601Z,18.08
2023-05-23T02:09:51.792Z,17.99
2023-05-23T02:12:19.954Z,18.00
2023-05-23T02:14:49.291Z,17.89
2023-05-23T02:17:17.605Z,17.88
2023-05-23T02:19:46.084Z,17.85
2023-05-23T02:22:15.812Z,17.83
2023-05-23T02:24:44.217Z,17.88
2023-05-23T02:27:14.643Z,18.12
2023-05-23T02:29:42.981Z,17.97
2023-05-23T02:32:11.646Z,17.75
2023-05-23T02:34:40.479Z,17.74
2023-05-23T02:37:08.763Z,17.61
2023-05-23T02:39:40.028Z,17.67
2023-05-23T02:42:08.625Z,17.76
2023-05-23T02:44:37.109Z,17.68
2023-05-23T02:47:05.615Z,17.70
2023-05-23T02:49:34.992Z,17.68
2023-05-23T02:52:03.414Z,17.59
2023-05-23T02:54:31.806Z,17.66
2023-05-23T02:57:01.557Z,17.79
2023-05-23T02:59:30.821Z,17.91
2023-05-23T03:01:59.079Z,17.61
2023-05-23T03:04:27.716Z,17.94
2023-05-23T03:06:55.906Z,17.99
2023-05-23T03:09:24.249Z,18.47
2023-05-23T03:11:52.454Z,17.96
2023-05-23T03:14:22.160Z,17.72
2023-05-23T03:16:50.827Z,17.70
2023-05-23T03:19:19.128Z,18.17
2023-05-23T03:21:47.850Z,17.94
2023-05-23T03:24:16.122Z,17.79
2023-05-23T03:26:45.328Z,17.75
2023-05-23T03:29:13.771Z,17.79
2023-05-23T03:31:43.397Z,17.62
2023-05-23T03:34:13.120Z,17.66
2023-05-23T03:36:41.441Z,17.60
2023-05-23T03:39:09.666Z,17.58
2023-05-23T03:41:37.923Z,17.75
2023-05-23T03:44:06.343Z,17.72
2023-05-23T03:46:34.913Z,17.70
2023-05-23T03:49:05.199Z,17.75
2023-05-23T03:51:33.405Z,17.80
2023-05-23T03:54:01.834Z,17.90
2023-05-23T03:56:30.096Z,18.11
2023-05-23T03:58:58.328Z,18.19
2023-05-23T04:01:26.551Z,18.18
2023-05-23T04:03:55.823Z,18.16
2023-05-23T04:06:30.124Z,18.71
2023-05-23T04:08:58.512Z,18.65
2023-05-23T04:11:27.011Z,19.09
2023-05-23T04:13:55.297Z,19.25
2023-05-23T04:16:24.203Z,19.02
2023-05-23T04:18:52.510Z,19.09
2023-05-23T04:21:21.044Z,18.91
2023-05-23T04:24:00.278Z,18.89
2023-05-23T04:26:28.951Z,18.87
2023-05-23T04:28:57.120Z,18.81
2023-05-23T04:31:25.503Z,18.98
2023-05-23T04:33:53.809Z,18.99
2023-05-23T04:36:23.623Z,19.42
2023-05-23T04:38:54.166Z,19.49
2023-05-23T04:41:24.449Z,19.54
2023-05-23T04:44:11.209Z,19.77
2023-05-23T04:46:45.532Z,19.55
2023-05-23T04:49:21.507Z,19.51
2023-05-23T04:51:49.850Z,19.64
2023-05-23T04:54:26.101Z,19.60
2023-05-23T04:56:57.323Z,19.89
2023-05-23T04:59:27.157Z,20.04
2023-05-23T05:01:55.356Z,20.25
2023-05-23T05:04:24.011Z,20.31
2023-05-23T05:06:52.680Z,20.30
2023-05-23T05:09:22.219Z,20.51
2023-05-23T05:11:51.402Z,20.45
2023-05-23T05:14:22.298Z,20.86
2023-05-23T05:16:50.912Z,21.09
2023-05-23T05:19:20.977Z,21.09
2023-05-23T05:21:49.180Z,20.66
2023-05-23T05:24:17.447Z,21.07
2023-05-23T05:26:45.916Z,21.26
2023-05-23T05:29:14.229Z,21.49
2023-05-23T05:31:45.352Z,21.53
2023-05-23T05:34:13.820Z,21.41
2023-05-23T05:36:45.934Z,21.35
2023-05-23T05:39:15.124Z,21.38
2023-05-23T05:41:43.672Z,21.57
2023-05-23T05:44:11.912Z,21.58
2023-05-23T05:46:40.253Z,22.06
2023-05-23T05:49:12.375Z,22.12
2023-05-23T05:51:41.120Z,22.25
2023-05-23T05:54:09.386Z,22.82
2023-05-23T05:56:37.566Z,22.66
2023-05-23T05:59:05.793Z,22.90
2023-05-23T06:01:34.888Z,23.15
2023-05-23T06:04:03.342Z,23.12
2023-05-23T06:06:33.672Z,22.80
2023-05-23T06:09:01.825Z,22.32
2023-05-23T06:11:30.964Z,23.15
2023-05-23T06:13:59.330Z,22.87
2023-05-23T06:16:27.601Z,22.72
2023-05-23T06:18:56.404Z,22.88
2023-05-23T06:21:25.898Z,23.41
2023-05-23T06:23:55.433Z,23.15
2023-05-23T06:26:23.669Z,23.31
2023-05-23T06:28:53.677Z,23.49
2023-05-23T06:31:21.908Z,23.82
2023-05-23T06:33:50.111Z,23.82
2023-05-23T06:36:19.139Z,24.15
2023-05-23T06:38:47.470Z,24.37
2023-05-23T06:41:17.146Z,24.42
2023-05-23T06:43:45.433Z,24.91
2023-05-23T06:46:16.164Z,25.19
2023-05-23T06:48:44.639Z,25.35
2023-05-23T06:51:13.192Z,25.36
2023-05-23T06:53:42.555Z,24.73
2023-05-23T06:56:10.921Z,25.08
2023-05-23T06:58:54.606Z,25.18
2023-05-23T07:01:23.292Z,25.88
2023-05-23T07:03:52.696Z,26.13
2023-05-23T07:06:21.208Z,26.26
2023-05-23T07:08:49.411Z,26.07
2023-05-23T07:11:17.883Z,26.62
2023-05-23T07:13:51.403Z,26.86
2023-05-23T07:16:28.650Z,27.20
2023-05-23T07:19:05.485Z,27.03
2023-05-23T07:21:37.227Z,27.23
2023-05-23T07:24:06.953Z,27.07
2023-05-23T07:26:35.477Z,27.00
2023-05-23T07:29:03.990Z,26.97
2023-05-23T07:31:34.017Z,26.80
2023-05-23T07:34:02.990Z,26.83
2023-05-23T07:36:42.499Z,27.00
2023-05-23T07:39:13.085Z,27.14
2023-05-23T07:41:41.199Z,27.11
2023-05-23T07:44:09.721Z,27.19
2023-05-23T07:46:39.471Z,27.12
2023-05-23T07:49:07.833Z,27.21
2023-05-23T07:51:36.228Z,27.28
2023-05-23T07:54:04.426Z,27.33
2023-05-23T07:56:32.889Z,27.55
2023-05-23T07:59:01.565Z,27.12
2023-05-23T08:01:30.272Z,27.16
2023-05-23T08:04:07.891Z,27.60
2023-05-23T08:07:00.919Z,27.57
2023-05-23T08:09:41.328Z,27.75
2023-05-23T08:12:11.754Z,27.84
2023-05-23T08:14:50.499Z,27.70
2023-05-23T08:17:43.271Z,27.86
2023-05-23T08:20:14.769Z,28.02
2023-05-23T08:22:43.021Z,27.98
2023-05-23T08:25:11.618Z,28.11
2023-05-23T08:27:41.697Z,28.16
2023-05-23T08:30:32.816Z,28.24
2023-05-23T08:33:04.803Z,28.43
2023-05-23T08:35:36.877Z,28.48
2023-05-23T08:38:10.755Z,28.63
2023-05-23T08:40:50.858Z,28.56
2023-05-23T08:43:19.689Z,28.93
2023-05-23T08:45:48.864Z,29.12
2023-05-23T08:48:20.778Z,28.99
2023-05-23T08:50:54.429Z,29.24
2023-05-23T08:53:26.592Z,29.43
2023-05-23T08:56:02.935Z,29.15
2023-05-23T08:58:40.836Z,29.50
2023-05-23T09:01:10.783Z,29.68
2023-05-23T09:03:40.073Z,29.50
2023-05-23T09:06:36.795Z,29.88
2023-05-23T09:09:05.445Z,29.67
2023-05-23T09:11:36.031Z,29.75
2023-05-23T09:14:08.069Z,30.23
2023-05-23T09:16:36.462Z,30.51
2023-05-23T09:19:15.237Z,30.61
2023-05-23T09:21:51.770Z,30.48
2023-05-23T09:24:35.270Z,30.46
2023-05-23T09:27:04.363Z,30.81
2023-05-23T09:29:32.664Z,31.09
2023-05-23T09:32:01.803Z,31.41
2023-05-23T09:34:31.330Z,31.60
2023-05-23T09:37:01.503Z,32.09
2023-05-23T09:39:31.615Z,32.01
2023-05-23T09:42:00.700Z,31.56
2023-05-23T09:44:29.205Z,31.77
2023-05-23T09:46:57.542Z,32.46
2023-05-23T09:49:28.029Z,32.64
2023-05-23T09:52:01.345Z,33.39
2023-05-23T09:54:29.527Z,33.24
2023-05-23T09:57:01.434Z,32.53
2023-05-23T09:59:30.243Z,32.53
2023-05-23T10:01:58.914Z,32.95
2023-05-23T10:04:27.173Z,33.28
2023-05-23T10:07:00.189Z,33.20
2023-05-23T10:09:33.737Z,33.15
2023-05-23T10:12:46.499Z,33.88
2023-05-23T10:15:17.431Z,33.84
2023-05-23T10:17:56.885Z,34.47
2023-05-23T10:20:27.264Z,34.46
2023-05-23T10:22:56.302Z,34.37
2023-05-23T10:25:25.995Z,34.91
2023-05-23T10:27:59.579Z,34.98
2023-05-23T10:30:29.585Z,35.05
2023-05-23T10:32:58.475Z,34.76
2023-05-23T10:35:39.664Z,33.87
2023-05-23T10:38:13.952Z,33.95
2023-05-23T10:40:51.999Z,33.66
2023-05-23T10:43:24.228Z,32.20
2023-05-23T10:45:53.006Z,31.68
2023-05-23T10:48:36.444Z,32.16
2023-05-23T10:51:06.239Z,33.23
2023-05-23T10:53:37.124Z,33.51
2023-05-23T10:56:11.112Z,33.86
2023-05-23T10:58:40.881Z,34.48
2023-05-23T11:01:10.908Z,35.07
2023-05-23T11:03:54.694Z,35.39
2023-05-23T11:06:32.058Z,36.06
2023-05-23T11:09:06.986Z,36.38
2023-05-23T11:11:58.312Z,34.78
2023-05-23T11:14:55.096Z,34.32
2023-05-23T11:17:34.168Z,33.33
2023-05-23T11:20:06.353Z,33.49
2023-05-23T11:22:35.374Z,32.92
2023-05-23T11:25:07.817Z,32.42
2023-05-23T11:27:38.896Z,31.69
2023-05-23T11:30:10.873Z,31.48
2023-05-23T11:32:39.155Z,31.11
2023-05-23T11:35:08.829Z,31.24
2023-05-23T11:37:39.382Z,30.90
2023-05-23T11:40:27.836Z,30.35
2023-05-23T11:42:57.956Z,30.77
2023-05-23T11:45:26.833Z,28.69
2023-05-23T11:47:55.377Z,23.94
2023-05-23T11:50:24.439Z,21.62
2023-05-23T11:52:52.750Z,20.27
2023-05-23T11:55:21.111Z,19.50
2023-05-23T11:57:49.546Z,18.28
2023-05-23T12:00:20.307Z,18.31
2023-05-23T12:02:49.255Z,17.90
2023-05-23T12:05:17.814Z,17.84
2023-05-23T12:07:47.551Z,17.96
2023-05-23T12:10:16.383Z,17.99
2023-05-23T12:12:45.329Z,17.98
2023-05-23T12:15:14.248Z,17.66
2023-05-23T12:17:47.210Z,17.89
2023-05-23T12:20:16.297Z,18.09
2023-05-23T12:22:44.763Z,18.01
2023-05-23T12:25:12.958Z,18.06
2023-05-23T12:27:44.013Z,18.11
2023-05-23T12:30:14.891Z,18.22
2023-05-23T12:32:44.377Z,18.34
2023-05-23T12:35:14.751Z,18.09
2023-05-23T12:37:43.982Z,18.56
2023-05-23T12:40:14.394Z,18.41
2023-05-23T12:42:52.703Z,18.55
2023-05-23T12:45:21.295Z,18.91
2023-05-23T12:47:51.353Z,19.15
2023-05-23T12:50:22.770Z,19.11
2023-05-23T12:52:51.299Z,19.51
2023-05-23T12:55:19.479Z,19.07
2023-05-23T12:57:48.275Z,19.47
2023-05-23T13:00:16.853Z,19.56
2023-05-23T13:02:45.228Z,19.52
2023-05-23T13:05:13.513Z,19.31
2023-05-23T13:07:44.192Z,19.49
2023-05-23T13:10:12.752Z,19.67
2023-05-23T13:12:40.957Z,20.18
2023-05-23T13:15:10.281Z,20.33
2023-05-23T13:17:38.468Z,19.99
2023-05-23T13:20:08.266Z,20.03
2023-05-23T13:22:36.430Z,19.99
2023-05-23T13:25:07.432Z,20.09
2023-05-23T13:27:35.844Z,20.02
2023-05-23T13:30:04.132Z,20.28
2023-05-23T13:32:32.312Z,20.13
2023-05-23T13:35:00.616Z,20.26
2023-05-23T13:37:28.767Z,20.02
2023-05-23T13:39:56.932Z,20.02
2023-05-23T13:42:26.503Z,20.31
2023-05-23T13:44:54.684Z,20.20
2023-05-23T13:47:22.987Z,20.55
2023-05-23T13:49:51.410Z,20.44
2023-05-23T13:52:20.309Z,20.51
2023-05-23T13:54:48.489Z,20.28
2023-05-23T13:57:17.022Z,20.53
2023-05-23T13:59:46.508Z,20.46
2023-05-23T14:02:14.983Z,20.62
2023-05-23T14:04:43.214Z,20.51
2023-05-23T14:07:11.498Z,20.91
2023-05-23T14:09:39.658Z,21.06
2023-05-23T14:12:08.476Z,18.33
2023-05-23T14:14:36.590Z,21.33
2023-05-23T14:17:06.691Z,21.77
2023-05-23T14:19:34.900Z,21.94
2023-05-23T14:22:03.262Z,22.12
2023-05-23T14:24:31.520Z,22.29
2023-05-23T14:27:00.293Z,22.57
2023-05-23T14:29:28.485Z,22.68
2023-05-23T14:31:56.788Z,22.82
2023-05-23T14:34:26.406Z,22.87
2023-05-23T14:36:55.238Z,23.15
2023-05-23T14:39:25.125Z,23.41
2023-05-23T14:41:53.322Z,23.26
2023-05-23T14:44:21.552Z,23.70
2023-05-23T14:46:50.298Z,23.30
2023-05-23T14:49:19.021Z,23.48
2023-05-23T14:51:51.883Z,23.68
2023-05-23T14:54:20.465Z,24.03
2023-05-23T14:56:49.974Z,23.94
2023-05-23T14:59:19.450Z,23.72
2023-05-23T15:01:47.658Z,23.29
2023-05-23T15:04:15.923Z,23.25
2023-05-23T15:06:44.291Z,23.25
2023-05-23T15:09:13.898Z,23.44
2023-05-23T15:11:42.480Z,23.88
2023-05-23T15:14:10.605Z,24.23
2023-05-23T15:16:38.997Z,23.97
2023-05-23T15:19:07.745Z,24.02
2023-05-23T15:21:36.277Z,24.01
2023-05-23T15:24:05.169Z,23.43
2023-05-23T15:26:34.762Z,23.13
2023-05-23T15:29:02.913Z,23.35
2023-05-23T15:31:31.172Z,23.64
2023-05-23T15:33:59.370Z,23.05
2023-05-23T15:36:27.537Z,22.95
2023-05-23T15:38:55.735Z,23.51
2023-05-23T15:41:23.963Z,23.39
2023-05-23T15:43:53.424Z,22.57
2023-05-23T15:46:21.811Z,22.75
2023-05-23T15:48:50.122Z,22.75
2023-05-23T15:51:18.274Z,22.99
2023-05-23T15:53:59.874Z,22.85
2023-05-23T15:56:29.117Z,22.40
2023-05-23T15:58:59.153Z,22.33
2023-05-23T16:01:28.686Z,21.97
2023-05-23T16:03:58.022Z,22.00
2023-05-23T16:06:28.443Z,21.71
2023-05-23T16:08:58.886Z,21.61
2023-05-23T16:11:27.814Z,21.76
2023-05-23T16:13:56.146Z,21.39
2023-05-23T16:16:25.891Z,21.54
2023-05-23T16:18:54.177Z,21.47
2023-05-23T16:21:22.391Z,21.42
2023-05-23T16:23:50.951Z,21.56
2023-05-23T16:26:21.195Z,21.60
2023-05-23T16:28:50.772Z,21.75
2023-05-23T16:31:19.107Z,21.85
2023-05-23T16:33:48.962Z,21.95
2023-05-23T16:36:17.203Z,22.05
2023-05-23T16:38:45.654Z,21.88
2023-05-23T16:41:14.269Z,21.95
2023-05-23T16:43:42.495Z,22.16
2023-05-23T16:46:10.956Z,22.48
2023-05-23T16:48:39.190Z,22.57
2023-05-23T16:51:08.769Z,22.90
2023-05-23T16:53:37.015Z,22.94
2023-05-23T16:56:05.491Z,22.90
2023-05-23T16:58:36.084Z,23.33
2023-05-23T17:01:04.434Z,23.59
2023-05-23T17:03:32.871Z,23.74
2023-05-23T17:06:01.699Z,23.57
2023-05-23T17:08:31.528Z,23.41
2023-05-23T17:10:59.993Z,23.64
2023-05-23T17:13:28.742Z,23.59
2023-05-23T17:15:57.224Z,23.51
2023-05-23T17:18:25.790Z,23.82
2023-05-23T17:20:54.501Z,24.13
2023-05-23T17:23:23.606Z,23.83
2023-05-23T17:25:53.877Z,23.72
2023-05-23T17:28:23.843Z,23.80
2023-05-23T17:30:53.835Z,23.90
2023-05-23T17:33:22.961Z,23.80
2023-05-23T17:35:53.041Z,23.90
2023-05-23T17:38:22.303Z,23.85
2023-05-23T17:40:51.460Z,23.85
2023-05-23T17:43:22.149Z,23.99
2023-05-23T17:45:51.567Z,23.80
2023-05-23T17:48:23.948Z,23.81
2023-05-23T17:51:00.570Z,24.20
2023-05-23T17:53:29.854Z,23.68
2023-05-23T17:55:58.966Z,23.72
2023-05-23T17:58:29.558Z,23.57
2023-05-23T18:00:58.811Z,23.69
2023-05-23T18:03:28.093Z,23.70
2023-05-23T18:05:57.297Z,23.51
2023-05-23T18:08:26.782Z,23.37
2023-05-23T18:10:55.978Z,23.14
2023-05-23T18:13:25.261Z,23.02
2023-05-23T18:15:55.777Z,22.82
2023-05-23T18:18:25.242Z,22.63
2023-05-23T18:20:54.628Z,22.57
2023-05-23T18:23:23.856Z,22.45
2023-05-23T18:25:53.408Z,22.32
2023-05-23T18:28:22.649Z,22.44
2023-05-23T18:30:51.955Z,22.26
2023-05-23T18:33:23.062Z,22.15
2023-05-23T18:35:53.370Z,22.08
2023-05-23T18:38:22.703Z,22.09
2023-05-23T18:40:51.984Z,22.23
2023-05-23T18:43:21.750Z,22.36
2023-05-23T18:45:51.140Z,22.57
2023-05-23T18:48:22.393Z,22.05
2023-05-23T18:50:51.874Z,22.12
2023-05-23T18:53:22.360Z,22.43
2023-05-23T18:55:51.853Z,22.03
2023-05-23T18:58:21.421Z,21.90
2023-05-23T19:00:50.683Z,21.99
2023-05-23T19:03:20.088Z,21.87
2023-05-23T19:05:50.985Z,21.97
2023-05-23T19:08:20.238Z,21.79
2023-05-23T19:10:49.359Z,21.85
2023-05-23T19:13:20.571Z,21.84
2023-05-23T19:15:50.810Z,21.84
2023-05-23T19:18:20.285Z,22.02
2023-05-23T19:20:52.319Z,22.02
2023-05-23T19:23:22.831Z,21.86
2023-05-23T19:25:51.915Z,21.97
2023-05-23T19:28:20.951Z,21.79
2023-05-23T19:30:49.988Z,21.62
2023-05-23T19:33:19.643Z,21.84
2023-05-23T19:35:48.619Z,21.43
2023-05-23T19:38:18.953Z,21.81
2023-05-23T19:40:48.086Z,21.97
2023-05-23T19:43:17.704Z,22.14
2023-05-23T19:45:46.836Z,21.66
2023-05-23T19:48:16.609Z,21.86
2023-05-23T19:50:45.470Z,21.60
2023-05-23T19:53:14.209Z,22.34
2023-05-23T19:55:44.336Z,22.12
2023-05-23T19:58:13.280Z,22.18
2023-05-23T20:00:42.472Z,22.21
2023-05-23T20:03:11.670Z,21.83
2023-05-23T20:05:40.685Z,22.02
2023-05-23T20:08:09.321Z,21.80
2023-05-23T20:10:37.675Z,21.69
2023-05-23T20:13:07.709Z,21.88
2023-05-23T20:15:40.108Z,21.90
2023-05-23T20:18:09.895Z,21.85
2023-05-23T20:20:39.107Z,21.82
2023-05-23T20:23:08.474Z,21.81
2023-05-23T20:25:37.658Z,21.70
2023-05-23T20:28:08.288Z,21.39
2023-05-23T20:30:37.452Z,21.73
2023-05-23T20:33:06.560Z,21.71
2023-05-23T20:35:35.689Z,21.70
2023-05-23T20:38:04.746Z,21.65
2023-05-23T20:40:33.928Z,21.80
2023-05-23T20:43:04.988Z,21.51
2023-05-23T20:45:35.431Z,21.46
2023-05-23T20:48:04.142Z,21.50
2023-05-23T20:50:34.073Z,21.49
2023-05-23T20:53:02.888Z,21.27
2023-05-23T20:55:31.299Z,21.23
2023-05-23T20:57:59.519Z,21.14
2023-05-23T21:00:27.815Z,21.33
2023-05-23T21:02:57.536Z,21.05
2023-05-23T21:05:25.867Z,21.15
2023-05-23T21:07:54.015Z,20.92
2023-05-23T21:10:22.340Z,21.09
2023-05-23T21:12:50.985Z,20.82
2023-05-23T21:15:19.780Z,20.71
2023-05-23T21:17:48.082Z,20.82
2023-05-23T21:20:19.805Z,20.87
2023-05-23T21:22:48.163Z,21.02
2023-05-23T21:25:16.379Z,21.05
2023-05-23T21:27:44.562Z,20.85
2023-05-23T21:30:14.987Z,21.06
2023-05-23T21:32:44.808Z,20.95
2023-05-23T21:35:13.120Z,20.99
2023-05-23T21:37:42.792Z,20.90
2023-05-23T21:40:11.698Z,20.84
2023-05-23T21:42:39.848Z,20.71
2023-05-23T21:45:09.252Z,20.71
2023-05-23T21:47:37.525Z,20.71
2023-05-23T21:50:06.403Z,20.63
2023-05-23T21:52:34.584Z,20.73
2023-05-23T21:55:04.432Z,20.63
2023-05-23T21:57:32.595Z,20.72
2023-05-23T22:00:00.721Z,20.96
2023-05-23T22:02:28.983Z,20.85
2023-05-23T22:04:57.371Z,21.05
2023-05-23T22:07:26.101Z,21.47
2023-05-23T22:09:56.256Z,21.43
2023-05-23T22:12:25.791Z,21.18
2023-05-23T22:14:55.158Z,21.06
2023-05-23T22:17:26.289Z,20.83
2023-05-23T22:19:57.038Z,20.72
2023-05-23T22:22:25.266Z,20.98
2023-05-23T22:24:53.729Z,20.53
2023-05-23T22:27:22.038Z,20.47
2023-05-23T22:29:52.259Z,20.64
2023-05-23T22:32:20.576Z,20.61
2023-05-23T22:34:48.711Z,20.57
2023-05-23T22:37:16.902Z,20.57
2023-05-23T22:39:45.054Z,20.55
2023-05-23T22:42:13.399Z,20.34
2023-05-23T22:44:41.649Z,20.38
2023-05-23T22:47:13.673Z,20.39
2023-05-23T22:49:42.483Z,20.39
2023-05-23T22:52:11.011Z,20.38
2023-05-23T22:54:39.200Z,20.39
2023-05-23T22:57:07.450Z,20.37
2023-05-23T22:59:35.705Z,20.26
2023-05-23T23:02:03.995Z,20.01
2023-05-23T23:04:33.905Z,19.72
2023-05-23T23:07:02.679Z,19.71
2023-05-23T23:09:30.937Z,19.86
2023-05-23T23:11:59.140Z,19.96
2023-05-23T23:14:27.305Z,20.17
2023-05-23T23:16:55.975Z,20.14
2023-05-23T23:19:24.179Z,20.17
2023-05-23T23:21:53.708Z,20.12
2023-05-23T23:24:21.880Z,20.10
2023-05-23T23:26:50.022Z,20.06
2023-05-23T23:29:18.196Z,20.01
2023-05-23T23:31:46.484Z,20.01
2023-05-23T23:34:14.748Z,19.95
2023-05-23T23:36:42.916Z,19.87
2023-05-23T23:39:12.464Z,19.94
2023-05-23T23:41:40.682Z,20.02
2023-05-23T23:44:08.911Z,19.93
2023-05-23T23:46:37.479Z,19.96
2023-05-23T23:49:05.662Z,19.93
2023-05-23T23:51:33.907Z,20.00
2023-05-23T23:54:02.103Z,20.00
2023-05-23T23:56:31.672Z,19.98
2023-05-23T23:58:59.806Z,19.80
